Time;durP1;ratioP1;P1;durP2;ratioP2;P2;SDS_P1;SDS_P2;PMS_P1;PMS_P2;Temp;Humidity;BMP_temperature;BMP_pressure;BME280_temperature;BME280_humidity;BME280_pressure;Samples;Min_cycle;Max_cycle;Signal;HPM_P1;HPM_P2
2021/12/11 00:01:26;;;;;;;4.15;1.83;;;;;;;;;;5037741;28;20029;-80
2021/12/11 00:04:00;;;;;;;3.25;1.73;;;2.30;99.90;;;;;;5036996;28;20041;-79
2021/12/11 00:06:33;;;;;;;4.28;2.00;;;2.30;99.90;;;;;;5037834;28;20034;-80
2021/12/11 00:09:00;;;;;;;5.38;2.13;;;;;;;;;;5040364;28;20037;-79
2021/12/11 00:11:30;;;;;;;2.67;1.80;;;;;;;;;;5045841;28;20025;-79
2021/12/11 00:13:58;;;;;;;3.58;1.65;;;2.20;99.90;;;;;;5038698;28;20079;-79
2021/12/11 00:16:27;;;;;;;3.95;1.98;;;2.10;99.90;;;;;;5045432;28;20553;-79
2021/12/11 00:18:54;;;;;;;5.63;1.63;;;;;;;;;;5035127;28;20151;-82
2021/12/11 00:21:22;;;;;;;3.40;1.60;;;;;;;;;;5039422;28;20036;-82
2021/12/11 00:23:52;;;;;;;2.78;1.30;;;;;;;;;;5037344;28;20450;-79
2021/12/11 00:26:27;;;;;;;3.83;1.58;;;;;;;;;;5040144;28;20040;-82
2021/12/11 00:28:53;;;;;;;2.30;1.83;;;;;;;;;;5041053;28;20680;-82
2021/12/11 00:31:20;;;;;;;4.22;2.10;;;;;;;;;;5041141;28;20029;-82
2021/12/11 00:33:47;;;;;;;4.15;1.83;;;;;;;;;;5036623;28;20049;-82
2021/12/11 00:36:15;;;;;;;5.32;1.92;;;;;;;;;;5038155;28;20472;-81
2021/12/11 00:38:42;;;;;;;3.15;1.63;;;;;;;;;;5035572;28;20025;-82
2021/12/11 00:41:10;;;;;;;2.70;1.45;;;;;;;;;;5032826;28;20035;-81
2021/12/11 00:43:37;;;;;;;5.30;2.10;;;;;;;;;;5040914;28;20051;-81
2021/12/11 00:46:07;;;;;;;2.90;1.27;;;;;;;;;;5039600;28;20116;-80
2021/12/11 00:48:33;;;;;;;2.80;1.90;;;;;;;;;;5046554;28;20035;-80
2021/12/11 00:51:02;;;;;;;1.67;1.02;;;;;;;;;;5039025;28;20037;-81
2021/12/11 00:53:38;;;;;;;1.73;1.48;;;;;;;;;;5041083;28;20068;-81
2021/12/11 00:56:07;;;;;;;3.00;1.80;;;;;;;;;;5039725;28;20068;-82
2021/12/11 00:58:35;;;;;;;2.80;1.38;;;;;;;;;;5036403;28;20627;-82
2021/12/11 01:01:07;;;;;;;2.67;1.83;;;;;;;;;;5037886;28;20024;-81
2021/12/11 01:03:44;;;;;;;2.22;1.45;;;;;;;;;;5048885;28;20025;-82
2021/12/11 01:06:16;;;;;;;6.97;2.78;;;;;;;;;;5039376;28;20060;-82
2021/12/11 01:08:43;;;;;;;1.35;0.88;;;;;;;;;;5043028;28;20135;-81
2021/12/11 01:11:16;;;;;;;2.85;1.55;;;;;;;;;;5039006;28;20021;-82
2021/12/11 01:13:48;;;;;;;6.57;2.53;;;2.10;99.90;;;;;;5037106;28;20037;-81
2021/12/11 01:16:16;;;;;;;4.38;1.98;;;;;;;;;;5031645;28;20061;-81
2021/12/11 01:18:45;;;;;;;3.08;1.77;;;;;;;;;;5037885;28;20036;-82
2021/12/11 01:22:00;;;;;;;4.93;1.60;;;;;;;;;;5036432;28;20078;-81
2021/12/11 01:26:32;;;;;;;3.28;1.65;;;;;;;;;;5037031;28;20167;-81
2021/12/11 01:28:58;;;;;;;4.03;2.28;;;;;;;;;;5041770;28;20029;-80
2021/12/11 01:31:24;;;;;;;2.10;1.58;;;;;;;;;;5030827;28;20035;-81
2021/12/11 01:33:52;;;;;;;2.08;1.50;;;;;;;;;;5035460;28;20491;-81
2021/12/11 01:36:18;;;;;;;2.63;1.45;;;;;;;;;;5032681;28;20033;-80
2021/12/11 01:38:44;;;;;;;2.50;1.27;;;;;;;;;;5038557;28;20382;-82
2021/12/11 01:41:12;;;;;;;2.85;1.50;;;;;;;;;;5038359;28;20034;-82
2021/12/11 01:43:41;;;;;;;3.90;2.00;;;;;;;;;;5035544;28;20449;-81
2021/12/11 01:46:08;;;;;;;3.92;1.60;;;;;;;;;;5037147;28;20031;-81
2021/12/11 01:48:36;;;;;;;2.30;1.00;;;;;;;;;;5035515;28;20025;-81
2021/12/11 01:51:05;;;;;;;2.90;1.20;;;;;;;;;;5038079;28;20083;-82
2021/12/11 01:53:35;;;;;;;4.03;1.65;;;2.00;99.90;;;;;;5038812;28;20119;-80
2021/12/11 01:56:08;;;;;;;4.13;2.08;;;2.20;99.90;;;;;;5035834;28;20473;-82
2021/12/11 01:58:39;;;;;;;4.25;1.27;;;;;;;;;;5036235;28;20037;-81
2021/12/11 02:01:09;;;;;;;4.18;1.48;;;;;;;;;;5033585;28;20069;-81
2021/12/11 02:03:36;;;;;;;6.90;2.00;;;2.00;99.90;;;;;;5041462;28;20062;-81
2021/12/11 02:06:02;;;;;;;4.75;2.13;;;2.20;99.90;;;;;;5043767;28;20512;-81
2021/12/11 02:08:30;;;;;;;7.35;2.72;;;;;;;;;;5038967;28;20102;-81
2021/12/11 02:10:58;;;;;;;6.72;2.45;;;;;;;;;;5042568;28;20124;-81
2021/12/11 02:13:37;;;;;;;5.32;2.13;;;;;;;;;;5041789;28;20039;-82
2021/12/11 02:16:05;;;;;;;3.55;1.92;;;;;;;;;;5044451;28;20041;-81
2021/12/11 02:18:35;;;;;;;2.95;1.90;;;;;;;;;;5040849;28;20033;-81
2021/12/11 02:21:08;;;;;;;5.28;2.47;;;;;;;;;;5039379;28;20489;-81
2021/12/11 02:23:34;;;;;;;6.78;3.40;;;;;;;;;;5042448;28;20029;-81
2021/12/11 02:26:02;;;;;;;9.52;4.45;;;;;;;;;;5042975;28;20048;-80
2021/12/11 02:28:31;;;;;;;8.50;4.38;;;;;;;;;;5040673;28;20040;-82
2021/12/11 02:31:05;;;;;;;10.88;4.95;;;;;;;;;;5043109;28;20025;-82
2021/12/11 02:33:52;;;;;;;9.02;4.00;;;;;;;;;;5042586;28;20167;-81
2021/12/11 02:36:22;;;;;;;6.90;2.72;;;;;;;;;;5038193;28;20029;-81
2021/12/11 02:39:00;;;;;;;7.28;3.60;;;2.10;99.90;;;;;;5037887;28;20947;-82
2021/12/11 02:41:31;;;;;;;7.18;2.67;;;;;;;;;;5038052;28;20044;-82
2021/12/11 02:43:59;;;;;;;7.35;3.20;;;;;;;;;;5038431;28;20040;-81
2021/12/11 02:46:39;;;;;;;4.00;2.03;;;2.10;99.90;;;;;;5039858;28;20191;-81
2021/12/11 02:49:10;;;;;;;2.85;1.48;;;;;;;;;;5036440;28;20060;-81
2021/12/11 02:51:39;;;;;;;6.03;2.38;;;;;;;;;;5039530;28;20025;-81
2021/12/11 02:54:14;;;;;;;6.45;4.25;;;;;;;;;;5038928;28;20037;-81
2021/12/11 02:56:43;;;;;;;4.63;2.33;;;;;;;;;;5037747;28;20120;-82
2021/12/11 02:59:13;;;;;;;5.28;2.92;;;;;;;;;;5038896;28;20112;-82
2021/12/11 03:01:42;;;;;;;2.22;1.80;;;;;;;;;;5041715;28;20032;-81
2021/12/11 03:04:20;;;;;;;3.17;1.67;;;;;;;;;;5037874;28;20017;-80
2021/12/11 03:06:48;;;;;;;3.67;2.03;;;;;;;;;;5041838;28;20040;-81
2021/12/11 03:09:17;;;;;;;2.40;1.17;;;;;;;;;;5043889;28;20042;-81
2021/12/11 03:11:43;;;;;;;6.57;2.35;;;;;;;;;;5035859;28;20079;-81
2021/12/11 03:14:12;;;;;;;3.03;1.90;;;2.00;99.90;;;;;;5038904;28;20037;-82
2021/12/11 03:16:39;;;;;;;5.35;1.92;;;;;;;;;;5044764;28;20034;-81
2021/12/11 03:19:06;;;;;;;5.40;2.72;;;;;;;;;;5037310;28;20078;-82
2021/12/11 03:21:32;;;;;;;3.88;1.83;;;;;;;;;;5045094;28;20037;-81
2021/12/11 03:23:59;;;;;;;3.83;2.08;;;;;;;;;;5038428;28;20041;-81
2021/12/11 03:26:25;;;;;;;5.22;2.65;;;;;;;;;;5041816;28;20381;-82
2021/12/11 03:28:51;;;;;;;3.53;1.95;;;;;;;;;;5037932;28;20484;-81
2021/12/11 03:31:17;;;;;;;7.40;3.47;;;;;;;;;;5036315;28;20036;-82
2021/12/11 03:33:47;;;;;;;3.85;2.03;;;;;;;;;;5047628;28;20036;-82
2021/12/11 03:36:18;;;;;;;4.13;1.95;;;2.10;99.90;;;;;;5039702;28;20051;-81
2021/12/11 03:38:46;;;;;;;3.53;2.08;;;;;;;;;;5038033;28;20029;-80
2021/12/11 03:41:12;;;;;;;4.45;2.53;;;;;;;;;;5039172;28;20037;-82
2021/12/11 03:43:38;;;;;;;4.97;3.08;;;;;;;;;;5034349;28;20025;-81
2021/12/11 03:46:08;;;;;;;6.82;3.28;;;2.10;99.90;;;;;;5034535;28;20083;-81
2021/12/11 03:48:44;;;;;;;3.05;2.13;;;2.00;99.90;;;;;;5038139;28;20041;-81
2021/12/11 03:51:12;;;;;;;4.85;2.85;;;;;;;;;;5039861;28;20371;-81
2021/12/11 03:53:39;;;;;;;3.35;1.85;;;;;;;;;;5038152;28;20045;-81
2021/12/11 03:56:08;;;;;;;3.00;1.80;;;2.10;99.90;;;;;;5037905;28;20036;-80
2021/12/11 03:58:35;;;;;;;5.10;2.15;;;;;;;;;;5039347;28;20021;-82
2021/12/11 04:01:07;;;;;;;5.30;3.00;;;;;;;;;;5034656;28;20102;-81
2021/12/11 04:03:34;;;;;;;3.83;2.25;;;;;;;;;;5038846;28;20339;-81
2021/12/11 04:06:02;;;;;;;4.72;2.63;;;;;;;;;;5041728;28;20599;-81
2021/12/11 04:08:29;;;;;;;6.60;2.92;;;;;;;;;;5041441;28;20033;-80
2021/12/11 04:10:56;;;;;;;5.22;2.80;;;2.10;99.90;;;;;;5033370;28;20104;-82
2021/12/11 04:13:22;;;;;;;4.82;1.70;;;;;;;;;;5036488;28;20134;-82
2021/12/11 04:15:50;;;;;;;6.32;2.80;;;2.00;99.90;;;;;;5039716;28;20155;-82
2021/12/11 04:18:17;;;;;;;5.10;2.97;;;;;;;;;;5022535;28;20069;-81
2021/12/11 04:20:43;;;;;;;5.32;3.20;;;;;;;;;;5027707;28;20033;-82
2021/12/11 04:23:13;;;;;;;4.72;2.22;;;2.00;99.90;;;;;;5036250;28;20045;-81
2021/12/11 04:25:41;;;;;;;5.30;2.55;;;;;;;;;;5034303;28;20029;-81
2021/12/11 04:28:07;;;;;;;6.50;2.25;;;;;;;;;;5037511;28;20041;-80
2021/12/11 04:30:34;;;;;;;6.15;2.45;;;;;;;;;;5034584;28;20029;-81
2021/12/11 04:33:00;;;;;;;6.55;3.85;;;;;;;;;;5037781;28;20071;-80
2021/12/11 04:35:29;;;;;;;8.07;4.43;;;;;;;;;;5037903;28;20031;-80
2021/12/11 04:37:55;;;;;;;6.47;3.45;;;;;;;;;;5033526;28;20032;-81
2021/12/11 04:40:23;;;;;;;6.72;3.47;;;;;;;;;;5040875;28;20107;-82
2021/12/11 04:43:08;;;;;;;6.13;2.78;;;;;;;;;;5039081;28;20025;-81
2021/12/11 04:45:43;;;;;;;8.52;4.22;;;;;;;;;;5036517;28;20506;-81
2021/12/11 04:48:31;;;;;;;9.88;4.53;;;1.20;99.90;;;;;;5033446;28;20540;-82
2021/12/11 04:51:04;;;;;;;6.97;3.92;;;;;;;;;;5032789;28;20032;-82
2021/12/11 05:11:38;;;;;;;7.68;4.47;;;;;;;;;;5037634;28;20098;-81
2021/12/11 05:14:06;;;;;;;7.70;4.43;;;;;;;;;;5036318;28;20566;-82
2021/12/11 05:16:32;;;;;;;16.30;5.70;;;;;;;;;;5042693;28;20040;-81
2021/12/11 05:18:58;;;;;;;17.80;7.05;;;;;;;;;;5045115;28;20033;-81
2021/12/11 05:21:24;;;;;;;12.02;4.43;;;;;;;;;;5036384;28;20068;-81
2021/12/11 05:23:51;;;;;;;8.82;4.40;;;;;;;;;;5037500;28;20061;-82
2021/12/11 05:26:18;;;;;;;5.35;2.83;;;;;;;;;;5029330;28;20053;-81
2021/12/11 05:28:44;;;;;;;8.13;3.72;;;;;;;;;;5043037;28;20166;-81
2021/12/11 05:31:11;;;;;;;9.27;3.95;;;;;;;;;;5039079;28;20877;-81
2021/12/11 05:33:37;;;;;;;7.88;4.05;;;;;;;;;;5044185;28;20037;-81
2021/12/11 05:36:06;;;;;;;9.93;4.68;;;;;;;;;;5042563;28;20034;-80
2021/12/11 05:38:33;;;;;;;11.05;4.63;;;;;;;;;;5051146;28;20111;-80
2021/12/11 05:41:01;;;;;;;11.75;4.57;;;;;;;;;;5042615;28;20115;-80
2021/12/11 05:43:28;;;;;;;9.90;3.97;;;;;;;;;;5052188;28;20036;-80
2021/12/11 05:45:54;;;;;;;7.57;3.60;;;;;;;;;;5040613;28;20119;-80
2021/12/11 05:48:20;;;;;;;7.97;3.78;;;;;;;;;;5048051;28;20461;-81
2021/12/11 05:50:50;;;;;;;6.78;3.35;;;;;;;;;;5044727;28;20037;-81
2021/12/11 05:53:17;;;;;;;6.72;3.78;;;;;;;;;;5042215;28;20432;-81
2021/12/11 05:55:45;;;;;;;7.53;4.18;;;;;;;;;;5045631;28;20021;-81
2021/12/11 05:58:13;;;;;;;8.38;3.90;;;;;;;;;;5054441;28;20067;-81
2021/12/11 06:00:44;;;;;;;7.00;4.05;;;;;;;;;;5041086;28;20025;-82
2021/12/11 06:03:10;;;;;;;13.85;3.72;;;;;;;;;;5045148;28;20029;-81
2021/12/11 06:05:36;;;;;;;9.75;4.13;;;;;;;;;;5052101;28;20168;-81
2021/12/11 06:08:03;;;;;;;11.57;5.07;;;;;;;;;;5049542;28;20021;-81
2021/12/11 06:10:29;;;;;;;9.95;3.83;;;;;;;;;;5042924;28;20033;-82
2021/12/11 06:12:56;;;;;;;8.48;5.05;;;;;;;;;;5035662;28;20018;-81
2021/12/11 06:15:23;;;;;;;6.07;3.30;;;;;;;;;;5036627;28;20484;-81
2021/12/11 06:17:49;;;;;;;11.60;5.70;;;;;;;;;;5048357;28;20057;-81
2021/12/11 06:20:19;;;;;;;9.00;3.85;;;;;;;;;;5048434;28;20052;-80
2021/12/11 06:22:47;;;;;;;11.55;4.97;;;;;;;;;;5037304;28;20145;-82
2021/12/11 06:25:19;;;;;;;8.63;3.85;;;2.40;99.90;;;;;;5047604;28;20420;-82
2021/12/11 06:27:46;;;;;;;7.72;4.25;;;;;;;;;;5037957;28;20033;-82
2021/12/11 06:30:13;;;;;;;10.68;4.97;;;;;;;;;;5029528;28;20124;-82
2021/12/11 06:32:39;;;;;;;9.35;3.45;;;;;;;;;;5034101;28;20029;-83
2021/12/11 06:35:12;;;;;;;8.63;3.55;;;;;;;;;;5034054;28;20037;-82
2021/12/11 06:37:38;;;;;;;8.18;4.20;;;;;;;;;;5046338;28;20033;-83
2021/12/11 06:40:04;;;;;;;10.57;4.43;;;;;;;;;;5035002;28;20059;-81
2021/12/11 06:42:31;;;;;;;10.75;4.45;;;;;;;;;;5050081;28;20025;-81
2021/12/11 06:44:57;;;;;;;10.52;5.05;;;;;;;;;;5039606;28;20037;-83
2021/12/11 06:47:23;;;;;;;12.63;4.25;;;;;;;;;;5043089;28;20449;-82
2021/12/11 06:49:49;;;;;;;10.88;4.78;;;;;;;;;;5048535;28;20124;-82
2021/12/11 06:52:20;;;;;;;12.75;4.88;;;2.40;99.90;;;;;;5055636;28;20029;-81
2021/12/11 06:54:46;;;;;;;8.75;5.50;;;;;;;;;;5051799;28;20485;-82
2021/12/11 06:57:12;;;;;;;9.60;4.85;;;;;;;;;;5036478;28;20465;-83
2021/12/11 06:59:38;;;;;;;10.27;5.05;;;;;;;;;;5037060;28;20857;-81
2021/12/11 07:02:05;;;;;;;10.80;4.78;;;;;;;;;;5034411;28;20060;-82
2021/12/11 07:04:31;;;;;;;12.88;5.97;;;;;;;;;;5043011;28;20123;-82
2021/12/11 07:06:57;;;;;;;44.30;14.68;;;;;;;;;;5041281;28;20033;-82
2021/12/11 07:09:26;;;;;;;23.30;9.52;;;2.50;99.90;;;;;;5035073;28;20037;-81
2021/12/11 07:11:53;;;;;;;17.73;8.68;;;;;;;;;;5036081;28;20132;-83
2021/12/11 07:14:20;;;;;;;15.30;7.03;;;;;;;;;;5038350;28;20047;-82
2021/12/11 07:16:47;;;;;;;17.40;6.50;;;;;;;;;;5041598;28;20087;-82
2021/12/11 07:19:14;;;;;;;15.25;5.13;;;;;;;;;;5039999;28;20040;-81
2021/12/11 07:21:40;;;;;;;13.77;6.50;;;;;;;;;;5030754;28;20024;-82
2021/12/11 07:24:08;;;;;;;10.13;5.47;;;;;;;;;;5039850;28;20036;-82
2021/12/11 07:26:34;;;;;;;17.00;6.00;;;;;;;;;;5037632;28;20430;-82
2021/12/11 07:29:03;;;;;;;15.32;5.82;;;;;;;;;;5032604;28;20044;-82
2021/12/11 07:31:29;;;;;;;11.88;5.70;;;;;;;;;;5030639;28;20032;-80
2021/12/11 07:33:56;;;;;;;9.95;4.78;;;;;;;;;;5032834;28;20499;-81
2021/12/11 07:36:23;;;;;;;8.50;4.47;;;;;;;;;;5035059;28;20056;-82
2021/12/11 07:38:49;;;;;;;11.93;5.63;;;;;;;;;;5036854;28;20117;-81
2021/12/11 07:41:16;;;;;;;7.57;4.43;;;;;;;;;;5027630;28;20025;-82
2021/12/11 07:43:43;;;;;;;13.85;4.72;;;;;;;;;;5028732;28;20533;-81
2021/12/11 07:46:13;;;;;;;8.02;3.90;;;;;;;;;;5024178;28;20087;-79
2021/12/11 07:48:39;;;;;;;13.45;5.88;;;;;;;;;;5025851;28;20020;-82
2021/12/11 07:51:05;;;;;;;16.08;7.22;;;;;;;;;;5038163;28;20032;-80
2021/12/11 07:53:31;;;;;;;17.67;7.90;;;;;;;;;;5038843;28;20068;-81
2021/12/11 07:55:58;;;;;;;16.38;6.43;;;;;;;;;;5037675;28;20029;-81
2021/12/11 07:58:24;;;;;;;12.13;5.70;;;;;;;;;;5032898;28;20120;-82
2021/12/11 08:00:50;;;;;;;15.05;5.65;;;;;;;;;;5035000;28;20033;-82
2021/12/11 08:03:18;;;;;;;9.23;3.63;;;2.60;99.90;;;;;;5057639;28;20063;-80
2021/12/11 08:05:45;;;;;;;12.48;4.07;;;;;;;;;;5050885;28;20021;-81
2021/12/11 08:08:11;;;;;;;14.00;6.50;;;;;;;;;;5048539;28;20028;-82
2021/12/11 08:10:38;;;;;;;14.45;4.93;;;;;;;;;;5036865;28;20021;-82
2021/12/11 08:13:05;;;;;;;9.48;4.90;;;;;;;;;;5042923;28;20034;-82
2021/12/11 08:15:31;;;;;;;9.25;4.70;;;;;;;;;;5038029;28;20037;-82
2021/12/11 08:17:57;;;;;;;8.98;4.22;;;;;;;;;;5038379;28;20035;-81
2021/12/11 08:20:24;;;;;;;9.75;4.80;;;;;;;;;;5046904;28;20441;-81
2021/12/11 08:22:51;;;;;;;15.60;5.13;;;;;;;;;;5051542;28;20070;-83
2021/12/11 08:25:18;;;;;;;14.05;7.63;;;;;;;;;;5050431;28;20087;-81
2021/12/11 08:27:44;;;;;;;18.63;7.35;;;;;;;;;;5030471;28;20052;-81
2021/12/11 08:30:11;;;;;;;9.68;5.30;;;;;;;;;;5042601;28;20488;-82
2021/12/11 08:32:38;;;;;;;9.90;5.70;;;;;;;;;;5045439;28;20025;-81
2021/12/11 08:35:06;;;;;;;13.95;5.72;;;;;;;;;;5041029;28;20140;-82
2021/12/11 08:37:32;;;;;;;14.45;5.82;;;;;;;;;;5039575;28;20126;-83
2021/12/11 08:39:58;;;;;;;11.18;4.78;;;;;;;;;;5038768;28;20079;-82
2021/12/11 08:42:25;;;;;;;21.17;7.55;;;;;;;;;;5041903;28;20052;-82
2021/12/11 08:44:59;;;;;;;11.15;5.43;;;;;;;;;;5042167;28;20033;-82
2021/12/11 08:47:25;;;;;;;13.23;5.65;;;;;;;;;;5034196;28;20037;-81
2021/12/11 08:49:52;;;;;;;6.78;4.05;;;;;;;;;;5041938;28;20018;-82
2021/12/11 08:52:25;;;;;;;10.55;5.07;;;;;;;;;;5035805;28;20088;-81
2021/12/11 08:54:51;;;;;;;19.13;9.40;;;;;;;;;;5042707;28;20044;-81
2021/12/11 08:57:19;;;;;;;15.02;5.47;;;;;;;;;;5037663;28;20148;-81
2021/12/11 08:59:48;;;;;;;14.07;7.03;;;;;;;;;;5039866;28;20031;-80
2021/12/11 09:02:16;;;;;;;10.70;5.35;;;;;;;;;;5039584;28;20029;-81
2021/12/11 09:04:49;;;;;;;8.73;4.68;;;;;;;;;;5045374;28;20083;-82
2021/12/11 09:07:17;;;;;;;9.80;5.90;;;;;;;;;;5041192;28;20029;-82
2021/12/11 09:09:48;;;;;;;18.80;5.53;;;;;;;;;;5043447;28;20423;-81
2021/12/11 09:12:14;;;;;;;8.57;4.60;;;;;;;;;;5032777;28;20045;-83
2021/12/11 09:14:43;;;;;;;6.03;3.53;;;;;;;;;;5037758;28;20485;-83
2021/12/11 09:17:24;;;;;;;13.38;4.45;;;;;;;;;;5039621;28;20036;-82
2021/12/11 09:19:56;;;;;;;10.43;5.05;;;;;;;;;;5038959;28;20061;-82
2021/12/11 09:22:34;;;;;;;8.80;4.17;;;;;;;;;;5039434;28;20436;-82
2021/12/11 09:25:06;;;;;;;8.48;4.65;;;;;;;;;;5033067;28;20029;-82
2021/12/11 09:27:52;;;;;;;11.30;5.82;;;;;;;;;;5035808;28;20397;-82
2021/12/11 09:30:22;;;;;;;12.40;5.57;;;;;;;;;;5041645;28;20030;-82
2021/12/11 09:33:00;;;;;;;9.93;4.75;;;;;;;;;;5043968;28;20025;-82
2021/12/11 09:35:30;;;;;;;11.25;5.47;;;;;;;;;;5036658;28;20080;-81
2021/12/11 09:37:58;;;;;;;11.57;6.32;;;;;;;;;;5042589;28;20460;-82
2021/12/11 09:40:40;;;;;;;10.98;4.72;;;;;;;;;;5037205;28;20034;-81
2021/12/11 09:43:06;;;;;;;11.20;4.95;;;;;;;;;;5035626;28;20033;-82
2021/12/11 09:45:35;;;;;;;12.60;5.65;;;;;;;;;;5038711;28;20055;-81
2021/12/11 09:48:08;;;;;;;8.93;5.25;;;3.80;99.90;;;;;;5042506;28;20108;-81
2021/12/11 09:50:44;;;;;;;12.18;6.57;;;;;;;;;;5042994;28;20111;-81
2021/12/11 09:53:11;;;;;;;11.27;4.85;;;;;;;;;;5038665;28;20044;-81
2021/12/11 09:55:39;;;;;;;14.55;5.47;;;;;;;;;;5034222;28;20788;-81
2021/12/11 09:58:06;;;;;;;13.40;7.45;;;;;;;;;;5037009;28;20037;-81
2021/12/11 10:00:42;;;;;;;11.02;6.25;;;;;;;;;;5034422;28;20468;-82
2021/12/11 10:03:09;;;;;;;13.52;6.53;;;;;;;;;;5041768;28;20029;-82
2021/12/11 10:05:44;;;;;;;15.27;6.85;;;;;;;;;;5045574;28;20017;-81
2021/12/11 10:08:30;;;;;;;9.45;5.75;;;;;;;;;;5037985;28;20493;-81
2021/12/11 10:11:08;;;;;;;10.70;4.90;;;;;;;;;;5034163;28;20075;-81
2021/12/11 10:13:37;;;;;;;12.35;6.35;;;;;;;;;;5033364;28;20037;-81
2021/12/11 10:16:03;;;;;;;11.40;6.68;;;;;;;;;;5034918;28;20183;-81
2021/12/11 10:18:30;;;;;;;11.18;5.20;;;;;;;;;;5044366;28;20037;-81
2021/12/11 10:21:01;;;;;;;10.02;5.15;;;;;;;;;;5037702;28;20030;-80
2021/12/11 10:23:29;;;;;;;9.82;4.75;;;;;;;;;;5039083;28;20060;-81
2021/12/11 10:25:57;;;;;;;8.55;4.63;;;;;;;;;;5033821;28;20265;-80
2021/12/11 10:28:27;;;;;;;12.23;6.60;;;;;;;;;;5038786;28;20045;-82
2021/12/11 10:30:56;;;;;;;12.95;6.47;;;;;;;;;;5042363;28;20084;-80
2021/12/11 10:33:24;;;;;;;9.68;5.95;;;;;;;;;;5043358;28;20059;-81
2021/12/11 10:35:52;;;;;;;8.82;5.63;;;;;;;;;;5043064;28;20182;-81
2021/12/11 10:38:19;;;;;;;15.45;5.93;;;;;;;;;;5038824;28;20467;-83
2021/12/11 10:40:53;;;;;;;15.73;7.13;;;;;;;;;;5035725;28;20029;-82
2021/12/11 10:43:26;;;;;;;12.93;5.53;;;;;;;;;;5050263;28;20036;-82
2021/12/11 10:45:52;;;;;;;19.17;7.43;;;;;;;;;;5045157;28;20026;-82
2021/12/11 10:48:22;;;;;;;16.75;7.72;;;;;;;;;;5042891;28;20033;-83
2021/12/11 10:50:50;;;;;;;16.20;7.80;;;;;;;;;;5043323;28;20043;-82
2021/12/11 10:53:20;;;;;;;13.30;6.28;;;4.50;99.90;;;;;;5035069;28;20507;-81
2021/12/11 10:55:46;;;;;;;11.90;6.72;;;;;;;;;;5037504;28;20330;-83
2021/12/11 10:58:15;;;;;;;10.98;5.85;;;;;;;;;;5043466;28;20295;-81
2021/12/11 11:00:47;;;;;;;9.90;5.43;;;;;;;;;;5039908;28;20474;-82
2021/12/11 11:03:15;;;;;;;14.85;7.20;;;;;;;;;;5033102;28;20093;-81
2021/12/11 11:05:41;;;;;;;15.75;7.03;;;;;;;;;;5039774;28;20095;-82
2021/12/11 11:08:08;;;;;;;15.82;8.98;;;;;;;;;;5044206;28;20028;-84
2021/12/11 11:10:39;;;;;;;15.45;8.02;;;;;;;;;;5028813;28;20037;-81
2021/12/11 11:13:11;;;;;;;18.52;7.00;;;;;;;;;;5034273;28;20153;-83
2021/12/11 11:15:38;;;;;;;15.70;7.07;;;;;;;;;;5032080;28;20112;-83
2021/12/11 11:18:04;;;;;;;16.85;7.72;;;;;;;;;;5028365;28;20021;-83
2021/12/11 11:20:35;;;;;;;15.75;7.82;;;;;;;;;;5034060;28;20037;-80
2021/12/11 11:23:01;;;;;;;13.15;7.13;;;;;;;;;;5031074;28;20033;-79
2021/12/11 11:25:29;;;;;;;14.60;6.78;;;;;;;;;;5028775;28;20030;-80
2021/12/11 11:27:59;;;;;;;16.52;8.02;;;5.50;99.90;;;;;;5029867;28;20059;-80
2021/12/11 11:30:28;;;;;;;16.25;6.93;;;;;;;;;;5051197;28;20036;-80
2021/12/11 11:32:54;;;;;;;13.40;6.13;;;;;;;;;;5041625;28;20032;-80
2021/12/11 11:35:23;;;;;;;12.23;5.50;;;;;;;;;;5042474;28;20128;-81
2021/12/11 11:37:50;;;;;;;9.00;5.43;;;;;;;;;;5041444;28;20039;-80
2021/12/11 11:40:19;;;;;;;14.43;6.13;;;;;;;;;;5037237;28;20033;-80
2021/12/11 11:42:45;;;;;;;15.15;6.85;;;;;;;;;;5038472;28;20044;-81
2021/12/11 11:45:12;;;;;;;15.07;6.78;;;;;;;;;;5040516;28;20088;-81
2021/12/11 11:47:38;;;;;;;17.10;7.88;;;;;;;;;;5039715;28;20032;-80
2021/12/11 11:50:07;;;;;;;17.08;7.43;;;;;;;;;;5039666;28;20033;-81
2021/12/11 11:52:33;;;;;;;16.02;7.80;;;;;;;;;;5031993;28;20034;-79
2021/12/11 11:55:01;;;;;;;13.35;6.50;;;;;;;;;;5031406;28;20170;-81
2021/12/11 11:57:39;;;;;;;14.55;5.68;;;;;;;;;;5038541;28;20021;-79
2021/12/11 12:00:15;;;;;;;12.93;6.85;;;;;;;;;;5031204;28;20421;-80
2021/12/11 12:02:41;;;;;;;16.45;7.97;;;;;;;;;;5033749;28;20045;-80
2021/12/11 12:05:07;;;;;;;16.45;8.23;;;;;;;;;;5032704;28;20757;-80
2021/12/11 12:07:34;;;;;;;12.02;5.90;;;;;;;;;;5037801;28;20025;-82
2021/12/11 12:10:04;;;;;;;11.00;5.97;;;;;;;;;;5026156;28;20033;-80
2021/12/11 12:12:30;;;;;;;15.77;6.10;;;;;;;;;;5043855;28;20021;-79
2021/12/11 12:14:57;;;;;;;14.10;5.32;;;;;;;;;;5041273;28;20056;-79
2021/12/11 12:17:24;;;;;;;10.13;5.60;;;;;;;;;;5037679;28;20025;-80
2021/12/11 12:19:51;;;;;;;15.93;4.88;;;;;;;;;;5036574;28;20144;-79
2021/12/11 12:22:18;;;;;;;12.15;6.60;;;;;;;;;;5031930;28;20031;-81
2021/12/11 12:24:45;;;;;;;10.18;4.47;;;;;;;;;;5048839;28;20067;-79
2021/12/11 12:27:18;;;;;;;10.90;6.10;;;4.50;99.90;;;;;;5049482;28;20023;-81
2021/12/11 12:29:44;;;;;;;;;;;;;;;;;;5048299;28;20048;-81
2021/12/11 12:32:22;;;;;;;10.25;4.97;;;4.30;99.90;;;;;;5048368;28;19920;-83
2021/12/11 12:34:49;;;;;;;15.05;5.95;;;;;;;;;;5032973;28;20401;-81
2021/12/11 12:37:15;;;;;;;13.50;5.95;;;;;;;;;;5035795;28;20024;-80
2021/12/11 12:39:43;;;;;;;15.73;5.68;;;;;;;;;;5041851;28;20033;-80
2021/12/11 12:42:20;;;;;;;52.67;17.83;;;;;;;;;;5030540;28;20029;-80
2021/12/11 12:44:53;;;;;;;25.20;8.38;;;;;;;;;;5043838;28;20033;-80
2021/12/11 12:47:24;;;;;;;13.27;6.40;;;;;;;;;;5047480;28;20039;-81
2021/12/11 12:49:53;;;;;;;13.48;4.82;;;;;;;;;;5044650;28;20036;-80
2021/12/11 12:52:33;;;;;;;10.43;5.82;;;4.10;99.90;;;;;;5041041;28;20028;-81
2021/12/11 12:55:01;;;;;;;11.40;5.38;;;;;;;;;;5045042;28;20180;-81
2021/12/11 12:57:37;;;;;;;12.93;5.80;;;4.80;99.90;;;;;;5029664;28;20028;-80
2021/12/11 13:00:19;;;;;;;10.10;5.20;;;;;;;;;;5047111;28;20059;-80
2021/12/11 13:02:45;;;;;;;11.52;4.40;;;;;;;;;;5044800;28;20024;-80
2021/12/11 13:05:17;;;;;;;11.77;6.05;;;;;;;;;;5044534;28;20041;-80
2021/12/11 13:07:44;;;;;;;9.35;4.82;;;;;;;;;;5044426;28;20053;-80
2021/12/11 13:10:13;;;;;;;8.23;4.63;;;;;;;;;;5038159;28;20024;-80
2021/12/11 13:12:42;;;;;;;8.68;3.85;;;;;;;;;;5042965;28;20802;-81
2021/12/11 13:15:14;;;;;;;13.38;5.13;;;;;;;;;;5043602;28;20100;-81
2021/12/11 13:17:43;;;;;;;10.73;5.30;;;;;;;;;;5039887;28;20035;-81
2021/12/11 13:20:12;;;;;;;15.02;5.72;;;;;;;;;;5045760;28;20108;-81
2021/12/11 13:22:40;;;;;;;8.93;3.60;;;;;;;;;;5038152;28;20084;-80
2021/12/11 13:25:14;;;;;;;6.13;3.80;;;;;;;;;;5044670;28;20505;-81
2021/12/11 13:27:41;;;;;;;7.60;4.63;;;;;;;;;;5046237;28;20033;-80
2021/12/11 13:30:11;;;;;;;11.38;4.03;;;;;;;;;;5048763;28;20384;-80
2021/12/11 13:32:37;;;;;;;10.90;5.43;;;;;;;;;;5036628;28;20065;-80
2021/12/11 13:35:12;;;;;;;10.60;4.25;;;;;;;;;;5044795;28;20527;-80
2021/12/11 13:37:39;;;;;;;9.35;4.30;;;;;;;;;;5044630;28;20087;-81
2021/12/11 13:40:08;;;;;;;10.65;4.60;;;;;;;;;;5040012;28;20422;-81
2021/12/11 13:42:34;;;;;;;12.57;6.20;;;;;;;;;;5039445;28;20030;-80
2021/12/11 13:45:06;;;;;;;11.27;4.45;;;;;;;;;;5043565;28;20472;-80
2021/12/11 13:47:34;;;;;;;22.73;8.57;;;;;;;;;;5046762;28;20049;-81
2021/12/11 13:50:05;;;;;;;12.05;6.68;;;4.10;99.90;;;;;;5041317;28;20584;-80
2021/12/11 13:52:31;;;;;;;6.80;3.90;;;;;;;;;;5040260;28;20484;-81
2021/12/11 13:54:57;;;;;;;14.32;4.47;;;;;;;;;;5039415;28;20489;-80
2021/12/11 13:57:25;;;;;;;8.57;4.10;;;;;;;;;;5044889;28;20037;-80
2021/12/11 13:59:53;;;;;;;11.73;4.50;;;;;;;;;;5041946;28;20029;-80
2021/12/11 14:02:20;;;;;;;14.25;4.85;;;;;;;;;;5050393;28;20051;-80
2021/12/11 14:04:46;;;;;;;10.82;4.65;;;;;;;;;;5048413;28;20320;-81
2021/12/11 14:07:19;;;;;;;13.02;5.60;;;;;;;;;;5039020;28;20525;-80
2021/12/11 14:09:49;;;;;;;;;;;4.40;99.90;;;;;;5046610;28;20039;-81
2021/12/11 14:12:15;;;;;;;9.05;4.60;;;;;;;;;;5052663;28;20038;-80
2021/12/11 14:14:41;;;;;;;7.60;4.35;;;;;;;;;;5048847;28;20052;-79
2021/12/11 14:17:08;;;;;;;9.43;3.60;;;;;;;;;;5063357;28;20038;-79
2021/12/11 14:19:34;;;;;;;7.13;4.35;;;;;;;;;;5061494;28;20092;-79
2021/12/11 14:22:04;;;;;;;8.55;4.65;;;;;;;;;;5068442;28;20025;-80
2021/12/11 14:24:32;;;;;;;11.90;3.78;;;;;;;;;;5049659;28;20025;-81
2021/12/11 14:26:58;;;;;;;13.32;3.65;;;;;;;;;;5044380;28;20033;-80
2021/12/11 14:29:24;;;;;;;7.68;3.58;;;;;;;;;;5049439;28;20137;-81
2021/12/11 14:31:50;;;;;;;8.68;4.32;;;;;;;;;;5050723;28;20054;-80
2021/12/11 14:34:16;;;;;;;16.17;4.88;;;;;;;;;;5052400;28;20045;-81
2021/12/11 14:36:43;;;;;;;6.03;3.60;;;;;;;;;;5050304;28;20029;-81
2021/12/11 14:39:15;;;;;;;9.02;4.05;;;4.00;99.90;;;;;;5048383;28;20516;-81
2021/12/11 14:41:45;;;;;;;10.05;5.00;;;;;;;;;;5042734;28;20025;-81
2021/12/11 14:44:13;;;;;;;8.95;4.03;;;;;;;;;;5049662;28;20033;-80
2021/12/11 14:46:39;;;;;;;7.22;4.55;;;;;;;;;;5047979;28;20049;-80
2021/12/11 14:49:06;;;;;;;9.45;4.55;;;;;;;;;;5039132;28;20030;-81
2021/12/11 14:51:33;;;;;;;14.20;6.30;;;;;;;;;;5041841;28;20033;-80
2021/12/11 14:54:00;;;;;;;9.38;4.40;;;;;;;;;;5048720;28;20037;-80
2021/12/11 14:56:30;;;;;;;9.13;4.60;;;;;;;;;;5047696;28;20052;-80